Terminal Aerodrome Forecast
Issued by NWS

Home | Current Version | Previous Version | Text Only | Print | Product List | Glossary On
Versions: 1 2 3 4 5 6 7 8 9 10 11 12 13 14 15 16 17 18 19 20 21 22 23 24 25 26 27 28 29 30
680
FTUS43 KDMX 251736
TAFOTM
TAF
KOTM 251736Z 2518/2618 20011KT P6SM VCSH BKN090
     FM252100 19012KT P6SM BKN100
     FM252300 19011KT P6SM SCT110
     FM260600 19008KT P6SM VCTS BKN025CB
      TEMPO 2607/2610 4SM -TSRA OVC007CB
     FM261300 20007KT P6SM VCSH BKN015
     FM261500 20007KT P6SM SCT015 BKN035=

USA.gov is the U.S. government's official web portal to all federal, state and local government web resources and services.